KQA483 HTDA-HKJK
Flight info
| Callsign | KQA483 |
|---|---|
| Flight time | 0h 59m |
| Altitude | 36000 |
| Route | DULVA DCT GABSO DCT APNOM DCT IMDIS |
| Aircraft | B738/M-SABDE2E3FGHIRWXY/LB2D1 |
Departure
| Time | 2026-04-19 07:19 |
|---|---|
| Airport | Julius Nyerere International Airport (HTDA) |
Arrival
| Time | 2026-04-19 08:18 |
|---|---|
| Airport | Jomo Kenyatta International Airport (HKJK) |
| Time | Latitude | Longitude | Altitude | Speed | Heading |
|---|---|---|---|---|---|
| 2026-04-19 06:56 | -6.86469 | 39.21136 | 176 ft | 0 kts | 315° |
| 2026-04-19 07:00 | -6.86478 | 39.21145 | 176 ft | 2 kts | 315° |
| 2026-04-19 07:00 | -6.86489 | 39.21156 | 176 ft | 2 kts | 315° |
| 2026-04-19 07:00 | -6.86501 | 39.21168 | 176 ft | 2 kts | 315° |
| 2026-04-19 07:00 | -6.86513 | 39.21180 | 176 ft | 2 kts | 315° |
| 2026-04-19 07:01 | -6.86525 | 39.21192 | 176 ft | 2 kts | 315° |
| 2026-04-19 07:01 | -6.86538 | 39.21197 | 176 ft | 2 kts | 53° |
| 2026-04-19 07:01 | -6.86545 | 39.21190 | 178 ft | 0 kts | 59° |
| 2026-04-19 07:03 | -6.86544 | 39.21193 | 176 ft | 2 kts | 64° |
| 2026-04-19 07:03 | -6.86526 | 39.21231 | 176 ft | 9 kts | 64° |
| 2026-04-19 07:04 | -6.86500 | 39.21285 | 175 ft | 6 kts | 64° |
| 2026-04-19 07:04 | -6.86489 | 39.21307 | 175 ft | 1 kts | 64° |
| 2026-04-19 07:04 | -6.86489 | 39.21308 | 175 ft | 0 kts | 64° |
| 2026-04-19 07:05 | -6.86488 | 39.21310 | 175 ft | 0 kts | 64° |
| 2026-04-19 07:05 | -6.86486 | 39.21315 | 175 ft | 2 kts | 64° |
| 2026-04-19 07:05 | -6.86480 | 39.21327 | 175 ft | 2 kts | 64° |
| 2026-04-19 07:05 | -6.86474 | 39.21339 | 175 ft | 2 kts | 64° |
| 2026-04-19 07:06 | -6.86467 | 39.21351 | 175 ft | 2 kts | 52° |
| 2026-04-19 07:06 | -6.86453 | 39.21371 | 175 ft | 9 kts | 58° |
| 2026-04-19 07:06 | -6.86399 | 39.21451 | 175 ft | 16 kts | 34° |
| 2026-04-19 07:06 | -6.86324 | 39.21532 | 174 ft | 16 kts | 67° |
| 2026-04-19 07:07 | -6.86314 | 39.21595 | 173 ft | 0 kts | 92° |
| 2026-04-19 07:16 | -6.86314 | 39.21596 | 173 ft | 1 kts | 93° |
| 2026-04-19 07:17 | -6.86334 | 39.21650 | 172 ft | 13 kts | 124° |
| 2026-04-19 07:17 | -6.86385 | 39.21679 | 172 ft | 5 kts | 206° |
| 2026-04-19 07:17 | -6.86408 | 39.21659 | 172 ft | 4 kts | 224° |
| 2026-04-19 07:18 | -6.86452 | 39.21617 | 173 ft | 35 kts | 225° |
| 2026-04-19 07:18 | -6.86831 | 39.21241 | 175 ft | 116 kts | 225° |
| 2026-04-19 07:18 | -6.87536 | 39.20538 | 509 ft | 151 kts | 224° |
| 2026-04-19 07:19 | -6.88282 | 39.19779 | 1461 ft | 155 kts | 224° |
| 2026-04-19 07:19 | -6.88976 | 39.18921 | 2249 ft | 171 kts | 237° |
| 2026-04-19 07:19 | -6.89336 | 39.17649 | 2813 ft | 203 kts | 264° |
| 2026-04-19 07:19 | -6.89066 | 39.16194 | 3240 ft | 231 kts | 290° |
| 2026-04-19 07:20 | -6.88012 | 39.14887 | 3791 ft | 252 kts | 321° |
| 2026-04-19 07:20 | -6.86542 | 39.14055 | 4551 ft | 262 kts | 334° |
| 2026-04-19 07:20 | -6.84892 | 39.13224 | 5520 ft | 266 kts | 324° |
| 2026-04-19 07:20 | -6.83813 | 39.12275 | 6120 ft | 275 kts | 314° |
| 2026-04-19 07:21 | -6.83338 | 39.11776 | 6366 ft | 280 kts | 313° |
| 2026-04-19 07:21 | -6.82681 | 39.11076 | 6775 ft | 284 kts | 313° |
| 2026-04-19 07:21 | -6.81341 | 39.09641 | 7989 ft | 273 kts | 314° |
| 2026-04-19 07:21 | -6.79555 | 39.07800 | 9116 ft | 287 kts | 315° |
| 2026-04-19 07:22 | -6.78133 | 39.06335 | 9841 ft | 297 kts | 315° |
| 2026-04-19 07:22 | -6.76671 | 39.04839 | 10664 ft | 304 kts | 316° |
| 2026-04-19 07:22 | -6.75167 | 39.03310 | 11484 ft | 310 kts | 316° |
| 2026-04-19 07:22 | -6.74152 | 39.02282 | 12053 ft | 313 kts | 316° |
| 2026-04-19 07:23 | -6.72086 | 39.00195 | 13211 ft | 318 kts | 316° |
| 2026-04-19 07:23 | -6.71043 | 38.99145 | 13763 ft | 320 kts | 316° |
| 2026-04-19 07:23 | -6.69462 | 38.97555 | 14586 ft | 324 kts | 316° |
| 2026-04-19 07:23 | -6.67858 | 38.95942 | 15393 ft | 328 kts | 316° |
| 2026-04-19 07:24 | -6.66236 | 38.94313 | 16174 ft | 332 kts | 316° |
| 2026-04-19 07:24 | -6.64586 | 38.92657 | 16947 ft | 335 kts | 316° |
| 2026-04-19 07:24 | -6.62930 | 38.90994 | 17732 ft | 338 kts | 316° |
| 2026-04-19 07:24 | -6.61257 | 38.89315 | 18480 ft | 342 kts | 316° |
| 2026-04-19 07:25 | -6.59558 | 38.87610 | 19185 ft | 345 kts | 316° |
| 2026-04-19 07:25 | -6.57852 | 38.85899 | 19887 ft | 349 kts | 316° |
| 2026-04-19 07:25 | -6.56143 | 38.84185 | 20569 ft | 353 kts | 316° |
| 2026-04-19 07:25 | -6.54377 | 38.82412 | 21232 ft | 356 kts | 316° |
| 2026-04-19 07:26 | -6.52516 | 38.80806 | 21840 ft | 359 kts | 328° |
| 2026-04-19 07:26 | -6.50297 | 38.79648 | 22464 ft | 360 kts | 341° |
| 2026-04-19 07:26 | -6.47917 | 38.78828 | 23094 ft | 362 kts | 343° |
| 2026-04-19 07:26 | -6.45504 | 38.78033 | 23674 ft | 366 kts | 343° |
| 2026-04-19 07:27 | -6.43070 | 38.77237 | 24240 ft | 370 kts | 343° |
| 2026-04-19 07:27 | -6.40608 | 38.76427 | 24803 ft | 373 kts | 343° |
| 2026-04-19 07:27 | -6.38164 | 38.75616 | 25342 ft | 376 kts | 343° |
| 2026-04-19 07:27 | -6.35670 | 38.74782 | 25872 ft | 379 kts | 342° |
| 2026-04-19 07:28 | -6.33151 | 38.73935 | 26383 ft | 383 kts | 342° |
| 2026-04-19 07:28 | -6.30609 | 38.73078 | 26884 ft | 386 kts | 342° |
| 2026-04-19 07:28 | -6.28062 | 38.72217 | 27365 ft | 389 kts | 342° |
| 2026-04-19 07:28 | -6.25486 | 38.71346 | 27845 ft | 391 kts | 342° |
| 2026-04-19 07:29 | -6.22897 | 38.70469 | 28305 ft | 394 kts | 342° |
| 2026-04-19 07:29 | -6.20291 | 38.69587 | 28742 ft | 397 kts | 342° |
| 2026-04-19 07:29 | -6.17656 | 38.68694 | 29171 ft | 400 kts | 342° |
| 2026-04-19 07:29 | -6.14996 | 38.67794 | 29584 ft | 403 kts | 342° |
| 2026-04-19 07:30 | -6.12327 | 38.66890 | 29990 ft | 406 kts | 342° |
| 2026-04-19 07:30 | -6.09639 | 38.65980 | 30394 ft | 409 kts | 342° |
| 2026-04-19 07:30 | -6.06968 | 38.65076 | 30772 ft | 411 kts | 342° |
| 2026-04-19 07:30 | -6.04224 | 38.64147 | 31188 ft | 412 kts | 342° |
| 2026-04-19 07:31 | -6.01852 | 38.63344 | 31600 ft | 412 kts | 342° |
| 2026-04-19 07:31 | -5.99442 | 38.62529 | 31836 ft | 417 kts | 342° |
| 2026-04-19 07:31 | -5.96663 | 38.61589 | 32082 ft | 422 kts | 342° |
| 2026-04-19 07:31 | -5.93875 | 38.60646 | 32377 ft | 425 kts | 342° |
| 2026-04-19 07:32 | -5.91070 | 38.59697 | 32708 ft | 427 kts | 342° |
| 2026-04-19 07:32 | -5.88236 | 38.58738 | 33067 ft | 428 kts | 342° |
| 2026-04-19 07:32 | -5.85429 | 38.57789 | 33368 ft | 431 kts | 342° |
| 2026-04-19 07:32 | -5.82578 | 38.56825 | 33653 ft | 433 kts | 342° |
| 2026-04-19 07:33 | -5.79715 | 38.55857 | 33947 ft | 435 kts | 342° |
| 2026-04-19 07:33 | -5.76838 | 38.54884 | 34236 ft | 437 kts | 342° |
| 2026-04-19 07:33 | -5.73945 | 38.53906 | 34507 ft | 439 kts | 342° |
| 2026-04-19 07:33 | -5.71036 | 38.52923 | 34763 ft | 441 kts | 342° |
| 2026-04-19 07:34 | -5.68119 | 38.51937 | 35014 ft | 443 kts | 342° |
| 2026-04-19 07:34 | -5.65189 | 38.50947 | 35277 ft | 445 kts | 342° |
| 2026-04-19 07:34 | -5.62273 | 38.49962 | 35517 ft | 447 kts | 342° |
| 2026-04-19 07:34 | -5.59315 | 38.48963 | 35738 ft | 449 kts | 342° |
| 2026-04-19 07:35 | -5.56349 | 38.47961 | 35950 ft | 451 kts | 342° |
| 2026-04-19 07:35 | -5.53363 | 38.46952 | 36162 ft | 453 kts | 342° |
| 2026-04-19 07:35 | -5.50403 | 38.45952 | 36237 ft | 455 kts | 342° |
| 2026-04-19 07:36 | -5.44438 | 38.43937 | 36233 ft | 448 kts | 342° |
| 2026-04-19 07:36 | -5.38569 | 38.41955 | 36244 ft | 444 kts | 342° |
| 2026-04-19 07:37 | -5.32717 | 38.39980 | 36249 ft | 443 kts | 342° |
| 2026-04-19 07:37 | -5.26857 | 38.38003 | 36245 ft | 443 kts | 342° |
| 2026-04-19 07:38 | -5.21012 | 38.36031 | 36245 ft | 443 kts | 342° |
| 2026-04-19 07:38 | -5.15189 | 38.34066 | 36244 ft | 444 kts | 342° |
| 2026-04-19 07:39 | -5.09323 | 38.32088 | 36245 ft | 444 kts | 342° |
| 2026-04-19 07:39 | -5.03447 | 38.30106 | 36243 ft | 445 kts | 342° |
| 2026-04-19 07:40 | -4.97578 | 38.28128 | 36244 ft | 445 kts | 342° |
| 2026-04-19 07:40 | -4.91721 | 38.26153 | 36244 ft | 446 kts | 342° |
| 2026-04-19 07:41 | -4.85823 | 38.24166 | 36243 ft | 446 kts | 342° |
| 2026-04-19 07:41 | -4.79935 | 38.22181 | 36243 ft | 446 kts | 342° |
| 2026-04-19 07:42 | -4.74067 | 38.20205 | 36232 ft | 447 kts | 342° |
| 2026-04-19 07:42 | -4.68158 | 38.18214 | 36239 ft | 449 kts | 342° |
| 2026-04-19 07:43 | -4.62218 | 38.16214 | 36245 ft | 449 kts | 342° |
| 2026-04-19 07:43 | -4.56281 | 38.14215 | 36241 ft | 451 kts | 342° |
| 2026-04-19 07:44 | -4.50330 | 38.12211 | 36243 ft | 451 kts | 342° |
| 2026-04-19 07:44 | -4.44430 | 38.10225 | 36242 ft | 450 kts | 342° |
| 2026-04-19 07:45 | -4.38434 | 38.08207 | 36426 ft | 456 kts | 342° |
| 2026-04-19 07:45 | -4.35421 | 38.07194 | 36652 ft | 457 kts | 342° |
| 2026-04-19 07:45 | -4.32388 | 38.06173 | 36879 ft | 458 kts | 342° |
| 2026-04-19 07:45 | -4.29366 | 38.05156 | 37075 ft | 460 kts | 342° |
| 2026-04-19 07:46 | -4.26368 | 38.04148 | 37292 ft | 460 kts | 342° |
| 2026-04-19 07:46 | -4.23330 | 38.03125 | 37548 ft | 460 kts | 342° |
| 2026-04-19 07:46 | -4.20278 | 38.02099 | 37758 ft | 461 kts | 342° |
| 2026-04-19 07:46 | -4.17243 | 38.01078 | 38008 ft | 461 kts | 342° |
| 2026-04-19 07:47 | -4.14215 | 38.00059 | 38255 ft | 460 kts | 342° |
| 2026-04-19 07:47 | -4.08147 | 37.98019 | 38245 ft | 461 kts | 342° |
| 2026-04-19 07:48 | -4.02105 | 37.95987 | 38247 ft | 455 kts | 342° |
| 2026-04-19 07:48 | -3.96094 | 37.93967 | 38248 ft | 455 kts | 342° |
| 2026-04-19 07:49 | -3.90087 | 37.91948 | 38248 ft | 455 kts | 342° |
| 2026-04-19 07:49 | -3.84086 | 37.89931 | 38242 ft | 455 kts | 342° |
| 2026-04-19 07:50 | -3.78106 | 37.87922 | 38246 ft | 455 kts | 342° |
| 2026-04-19 07:50 | -3.72094 | 37.85902 | 38243 ft | 456 kts | 342° |
| 2026-04-19 07:51 | -3.66074 | 37.83880 | 38242 ft | 456 kts | 342° |
| 2026-04-19 07:51 | -3.60078 | 37.81866 | 38245 ft | 456 kts | 342° |
| 2026-04-19 07:52 | -3.54056 | 37.79843 | 38244 ft | 456 kts | 342° |
| 2026-04-19 07:52 | -3.48030 | 37.77820 | 38244 ft | 456 kts | 342° |
| 2026-04-19 07:53 | -3.42032 | 37.75806 | 38244 ft | 456 kts | 342° |
| 2026-04-19 07:53 | -3.36006 | 37.73783 | 38244 ft | 456 kts | 342° |
| 2026-04-19 07:54 | -3.30006 | 37.71770 | 38245 ft | 457 kts | 342° |
| 2026-04-19 07:54 | -3.23973 | 37.69745 | 38244 ft | 457 kts | 342° |
| 2026-04-19 07:55 | -3.17936 | 37.67719 | 38234 ft | 456 kts | 342° |
| 2026-04-19 07:55 | -3.14950 | 37.66716 | 38155 ft | 444 kts | 342° |
| 2026-04-19 07:55 | -3.12041 | 37.65740 | 37613 ft | 443 kts | 342° |
| 2026-04-19 07:55 | -3.09120 | 37.64760 | 36722 ft | 452 kts | 342° |
| 2026-04-19 07:56 | -3.06125 | 37.63756 | 36055 ft | 454 kts | 342° |
| 2026-04-19 07:56 | -3.03126 | 37.62750 | 35627 ft | 450 kts | 342° |
| 2026-04-19 07:56 | -3.00178 | 37.61760 | 35276 ft | 445 kts | 342° |
| 2026-04-19 07:56 | -2.97228 | 37.60771 | 34467 ft | 450 kts | 342° |
| 2026-04-19 07:57 | -2.94260 | 37.59775 | 33990 ft | 447 kts | 342° |
| 2026-04-19 07:57 | -2.91349 | 37.58799 | 33475 ft | 445 kts | 342° |
| 2026-04-19 07:57 | -2.88410 | 37.57813 | 33009 ft | 442 kts | 342° |
| 2026-04-19 07:57 | -2.85507 | 37.56809 | 32694 ft | 436 kts | 339° |
| 2026-04-19 07:58 | -2.82805 | 37.55494 | 32439 ft | 428 kts | 332° |
| 2026-04-19 07:58 | -2.80230 | 37.54049 | 32187 ft | 421 kts | 331° |
| 2026-04-19 07:58 | -2.77739 | 37.52642 | 31925 ft | 414 kts | 331° |
| 2026-04-19 07:58 | -2.75233 | 37.51228 | 31590 ft | 410 kts | 332° |
| 2026-04-19 07:59 | -2.72751 | 37.49834 | 31175 ft | 408 kts | 332° |
| 2026-04-19 07:59 | -2.70272 | 37.48449 | 30753 ft | 407 kts | 332° |
| 2026-04-19 07:59 | -2.67806 | 37.47075 | 30319 ft | 405 kts | 332° |
| 2026-04-19 07:59 | -2.65345 | 37.45707 | 29881 ft | 404 kts | 332° |
| 2026-04-19 08:00 | -2.62898 | 37.44348 | 29440 ft | 403 kts | 332° |
| 2026-04-19 08:00 | -2.60446 | 37.42987 | 28988 ft | 402 kts | 332° |
| 2026-04-19 08:00 | -2.58000 | 37.41630 | 28669 ft | 401 kts | 332° |
| 2026-04-19 08:00 | -2.55518 | 37.40254 | 28450 ft | 418 kts | 332° |
| 2026-04-19 08:01 | -2.52906 | 37.38807 | 27981 ft | 431 kts | 332° |
| 2026-04-19 08:01 | -2.50299 | 37.37360 | 27488 ft | 428 kts | 332° |
| 2026-04-19 08:01 | -2.47697 | 37.35916 | 26991 ft | 424 kts | 332° |
| 2026-04-19 08:01 | -2.45164 | 37.34509 | 26503 ft | 420 kts | 332° |
| 2026-04-19 08:02 | -2.42621 | 37.33097 | 26010 ft | 417 kts | 332° |
| 2026-04-19 08:02 | -2.40094 | 37.31695 | 25520 ft | 414 kts | 332° |
| 2026-04-19 08:02 | -2.37589 | 37.30305 | 25031 ft | 411 kts | 332° |
| 2026-04-19 08:02 | -2.35089 | 37.28918 | 24542 ft | 407 kts | 332° |
| 2026-04-19 08:03 | -2.32616 | 37.27546 | 24056 ft | 405 kts | 332° |
| 2026-04-19 08:03 | -2.30161 | 37.26184 | 23570 ft | 402 kts | 332° |
| 2026-04-19 08:03 | -2.27721 | 37.24831 | 23093 ft | 399 kts | 332° |
| 2026-04-19 08:03 | -2.25308 | 37.23492 | 22616 ft | 396 kts | 332° |
| 2026-04-19 08:04 | -2.22906 | 37.22160 | 22144 ft | 393 kts | 332° |
| 2026-04-19 08:04 | -2.20516 | 37.20835 | 21667 ft | 391 kts | 332° |
| 2026-04-19 08:04 | -2.18177 | 37.19537 | 21202 ft | 388 kts | 332° |
| 2026-04-19 08:04 | -2.15815 | 37.18227 | 20732 ft | 386 kts | 332° |
| 2026-04-19 08:05 | -2.13486 | 37.16936 | 20267 ft | 383 kts | 332° |
| 2026-04-19 08:05 | -2.11152 | 37.15641 | 19806 ft | 380 kts | 332° |
| 2026-04-19 08:05 | -2.08840 | 37.14359 | 19334 ft | 378 kts | 332° |
| 2026-04-19 08:05 | -2.06546 | 37.13087 | 18886 ft | 375 kts | 332° |
| 2026-04-19 08:06 | -2.04266 | 37.11823 | 18431 ft | 373 kts | 332° |
| 2026-04-19 08:06 | -2.01999 | 37.10566 | 17973 ft | 371 kts | 332° |
| 2026-04-19 08:06 | -1.99757 | 37.09323 | 17530 ft | 368 kts | 332° |
| 2026-04-19 08:06 | -1.97514 | 37.08079 | 17078 ft | 366 kts | 332° |
| 2026-04-19 08:07 | -1.95322 | 37.06864 | 16633 ft | 364 kts | 332° |
| 2026-04-19 08:07 | -1.93106 | 37.05635 | 16178 ft | 362 kts | 332° |
| 2026-04-19 08:07 | -1.90913 | 37.04419 | 15748 ft | 360 kts | 333° |
| 2026-04-19 08:07 | -1.88731 | 37.03209 | 15308 ft | 358 kts | 333° |
| 2026-04-19 08:08 | -1.86554 | 37.02002 | 14852 ft | 356 kts | 333° |
| 2026-04-19 08:08 | -1.84390 | 37.00803 | 14422 ft | 354 kts | 333° |
| 2026-04-19 08:08 | -1.82235 | 36.99608 | 13982 ft | 352 kts | 333° |
| 2026-04-19 08:08 | -1.80096 | 36.98423 | 13549 ft | 350 kts | 333° |
| 2026-04-19 08:09 | -1.77995 | 36.97258 | 13124 ft | 348 kts | 333° |
| 2026-04-19 08:09 | -1.75881 | 36.96086 | 12692 ft | 346 kts | 333° |
| 2026-04-19 08:09 | -1.73792 | 36.94928 | 12266 ft | 344 kts | 333° |
| 2026-04-19 08:09 | -1.71699 | 36.93768 | 11843 ft | 342 kts | 333° |
| 2026-04-19 08:10 | -1.70320 | 36.93004 | 11555 ft | 341 kts | 333° |
| 2026-04-19 08:10 | -1.67559 | 36.91473 | 10992 ft | 338 kts | 333° |
| 2026-04-19 08:10 | -1.66711 | 36.91003 | 10917 ft | 334 kts | 333° |
| 2026-04-19 08:10 | -1.65014 | 36.90058 | 10785 ft | 321 kts | 335° |
| 2026-04-19 08:11 | -1.63125 | 36.89010 | 10637 ft | 304 kts | 333° |
| 2026-04-19 08:11 | -1.61299 | 36.87999 | 10510 ft | 294 kts | 333° |
| 2026-04-19 08:11 | -1.59510 | 36.87009 | 10403 ft | 295 kts | 333° |
| 2026-04-19 08:11 | -1.57720 | 36.86019 | 10279 ft | 294 kts | 333° |
| 2026-04-19 08:12 | -1.55940 | 36.85033 | 10035 ft | 296 kts | 333° |
| 2026-04-19 08:12 | -1.54158 | 36.84045 | 9733 ft | 288 kts | 333° |
| 2026-04-19 08:12 | -1.52446 | 36.83094 | 9478 ft | 273 kts | 333° |
| 2026-04-19 08:12 | -1.50843 | 36.82131 | 9125 ft | 261 kts | 327° |
| 2026-04-19 08:13 | -1.49397 | 36.81084 | 9115 ft | 255 kts | 326° |
| 2026-04-19 08:13 | -1.47999 | 36.80053 | 9113 ft | 252 kts | 326° |
| 2026-04-19 08:13 | -1.46563 | 36.79008 | 8827 ft | 259 kts | 326° |
| 2026-04-19 08:13 | -1.44994 | 36.78199 | 8647 ft | 245 kts | 351° |
| 2026-04-19 08:14 | -1.43415 | 36.78360 | 8587 ft | 218 kts | 30° |
| 2026-04-19 08:14 | -1.41212 | 36.80207 | 8121 ft | 202 kts | 50° |
| 2026-04-19 08:14 | -1.40341 | 36.81274 | 7873 ft | 194 kts | 54° |
| 2026-04-19 08:15 | -1.39560 | 36.82328 | 7640 ft | 189 kts | 56° |
| 2026-04-19 08:15 | -1.38785 | 36.83389 | 7364 ft | 187 kts | 56° |
| 2026-04-19 08:15 | -1.38022 | 36.84427 | 7133 ft | 180 kts | 56° |
| 2026-04-19 08:15 | -1.37308 | 36.85409 | 6871 ft | 168 kts | 56° |
| 2026-04-19 08:16 | -1.36659 | 36.86298 | 6668 ft | 152 kts | 56° |
| 2026-04-19 08:16 | -1.36031 | 36.87157 | 6478 ft | 151 kts | 56° |
| 2026-04-19 08:16 | -1.35440 | 36.87966 | 6295 ft | 142 kts | 57° |
| 2026-04-19 08:16 | -1.34863 | 36.88759 | 6073 ft | 141 kts | 57° |
| 2026-04-19 08:17 | -1.34280 | 36.89551 | 5891 ft | 141 kts | 56° |
| 2026-04-19 08:17 | -1.33703 | 36.90342 | 5737 ft | 142 kts | 56° |
| 2026-04-19 08:17 | -1.33115 | 36.91147 | 5522 ft | 143 kts | 56° |
| 2026-04-19 08:17 | -1.32543 | 36.91926 | 5348 ft | 133 kts | 56° |
| 2026-04-19 08:18 | -1.32047 | 36.92612 | 5317 ft | 106 kts | 53° |
| 2026-04-19 08:18 | -1.31703 | 36.93085 | 5312 ft | 64 kts | 54° |
| 2026-04-19 08:18 | -1.31482 | 36.93395 | 5306 ft | 51 kts | 54° |
| 2026-04-19 08:18 | -1.31352 | 36.93571 | 5305 ft | 23 kts | 52° |
| 2026-04-19 08:19 | -1.31260 | 36.93692 | 5304 ft | 21 kts | 52° |
| 2026-04-19 08:19 | -1.31187 | 36.93807 | 5302 ft | 16 kts | 76° |
| 2026-04-19 08:19 | -1.31243 | 36.93880 | 5302 ft | 13 kts | 143° |
| 2026-04-19 08:19 | -1.31316 | 36.93934 | 5306 ft | 12 kts | 143° |
| 2026-04-19 08:20 | -1.31383 | 36.93983 | 5306 ft | 12 kts | 144° |
| 2026-04-19 08:20 | -1.31453 | 36.93987 | 5305 ft | 11 kts | 219° |
| 2026-04-19 08:20 | -1.31499 | 36.93929 | 5306 ft | 11 kts | 234° |
| 2026-04-19 08:20 | -1.31541 | 36.93870 | 5304 ft | 10 kts | 235° |
| 2026-04-19 08:21 | -1.31588 | 36.93817 | 5311 ft | 10 kts | 221° |
| 2026-04-19 08:21 | -1.31646 | 36.93781 | 5309 ft | 10 kts | 206° |
| 2026-04-19 08:21 | -1.31709 | 36.93760 | 5305 ft | 9 kts | 191° |
| 2026-04-19 08:21 | -1.31773 | 36.93756 | 5312 ft | 9 kts | 177° |
| 2026-04-19 08:22 | -1.31833 | 36.93751 | 5309 ft | 9 kts | 225° |
| 2026-04-19 08:22 | -1.31822 | 36.93693 | 5310 ft | 9 kts | 290° |
| 2026-04-19 08:22 | -1.31805 | 36.93635 | 5314 ft | 9 kts | 285° |
| 2026-04-19 08:22 | -1.31796 | 36.93562 | 5314 ft | 14 kts | 263° |
| 2026-04-19 08:23 | -1.31845 | 36.93452 | 5313 ft | 21 kts | 236° |
| 2026-04-19 08:23 | -1.31931 | 36.93333 | 5316 ft | 21 kts | 234° |
| 2026-04-19 08:23 | -1.32016 | 36.93216 | 5316 ft | 20 kts | 234° |
| 2026-04-19 08:23 | -1.32097 | 36.93104 | 5325 ft | 20 kts | 234° |
| 2026-04-19 08:24 | -1.32177 | 36.92993 | 5332 ft | 19 kts | 234° |
| 2026-04-19 08:24 | -1.32252 | 36.92887 | 5329 ft | 19 kts | 234° |
| 2026-04-19 08:24 | -1.32327 | 36.92785 | 5329 ft | 18 kts | 234° |
| 2026-04-19 08:24 | -1.32399 | 36.92685 | 5332 ft | 17 kts | 234° |
| 2026-04-19 08:25 | -1.32468 | 36.92590 | 5330 ft | 17 kts | 234° |
| 2026-04-19 08:25 | -1.32535 | 36.92497 | 5330 ft | 16 kts | 234° |
| 2026-04-19 08:25 | -1.32599 | 36.92408 | 5331 ft | 15 kts | 234° |
| 2026-04-19 08:25 | -1.32675 | 36.92361 | 5330 ft | 13 kts | 178° |
| 2026-04-19 08:26 | -1.32739 | 36.92392 | 5334 ft | 10 kts | 141° |
| 2026-04-19 08:26 | -1.32769 | 36.92448 | 5333 ft | 8 kts | 103° |
| 2026-04-19 08:26 | -1.32788 | 36.92477 | 5333 ft | 4 kts | 145° |
| 2026-04-19 08:26 | -1.32817 | 36.92484 | 5330 ft | 4 kts | 176° |
| 2026-04-19 08:27 | -1.32846 | 36.92486 | 5329 ft | 4 kts | 176° |
| 2026-04-19 08:27 | -1.32854 | 36.92487 | 5330 ft | 0 kts | 176° |